NPT796 LFRB-LFBC
Flight info
| Callsign | NPT796 |
|---|---|
| Flight time | 1h 8m |
| Altitude | 15000 |
| Route | ROSPO DCT MAREN/N0239F140 |
| Aircraft | YS11/M-SDFHY/C |
Departure
| Time | 2026-05-06 17:30 |
|---|---|
| Airport | Brest Bretagne airport (LFRB) |
Arrival
| Time | 2026-05-06 18:39 |
|---|---|
| Airport | Cazaux (BA 120) Air Base (LFBC) |
| Time | Latitude | Longitude | Altitude | Speed | Heading |
|---|---|---|---|---|---|
| 2026-05-06 16:41 | 48.44423 | -4.41953 | 327 ft | 0 kts | 201° |
| 2026-05-06 17:00 | 48.44445 | -4.41943 | 331 ft | 4 kts | 185° |
| 2026-05-06 17:00 | 48.44470 | -4.41947 | 331 ft | 4 kts | 154° |
| 2026-05-06 17:00 | 48.44491 | -4.41970 | 331 ft | 4 kts | 126° |
| 2026-05-06 17:01 | 48.44504 | -4.42005 | 331 ft | 4 kts | 105° |
| 2026-05-06 17:01 | 48.44507 | -4.42044 | 332 ft | 4 kts | 79° |
| 2026-05-06 17:01 | 48.44506 | -4.42054 | 332 ft | 0 kts | 71° |
| 2026-05-06 17:09 | 48.44423 | -4.41953 | 332 ft | 12 kts | 201° |
| 2026-05-06 17:09 | 48.44452 | -4.41936 | 332 ft | 0 kts | 201° |
| 2026-05-06 17:23 | 48.44453 | -4.41939 | 332 ft | 1 kts | 302° |
| 2026-05-06 17:23 | 48.44461 | -4.41955 | 332 ft | 3 kts | 314° |
| 2026-05-06 17:23 | 48.44478 | -4.41965 | 332 ft | 2 kts | 356° |
| 2026-05-06 17:24 | 48.44515 | -4.41969 | 332 ft | 5 kts | 344° |
| 2026-05-06 17:24 | 48.44549 | -4.41987 | 331 ft | 6 kts | 336° |
| 2026-05-06 17:24 | 48.44576 | -4.42028 | 330 ft | 7 kts | 283° |
| 2026-05-06 17:24 | 48.44597 | -4.42116 | 329 ft | 10 kts | 322° |
| 2026-05-06 17:25 | 48.44657 | -4.42149 | 331 ft | 9 kts | 343° |
| 2026-05-06 17:25 | 48.44690 | -4.42236 | 325 ft | 14 kts | 259° |
| 2026-05-06 17:25 | 48.44650 | -4.42416 | 316 ft | 21 kts | 240° |
| 2026-05-06 17:25 | 48.44609 | -4.42618 | 309 ft | 19 kts | 253° |
| 2026-05-06 17:26 | 48.44566 | -4.42813 | 304 ft | 21 kts | 252° |
| 2026-05-06 17:26 | 48.44520 | -4.43025 | 300 ft | 22 kts | 251° |
| 2026-05-06 17:26 | 48.44473 | -4.43236 | 300 ft | 20 kts | 251° |
| 2026-05-06 17:26 | 48.44430 | -4.43429 | 302 ft | 20 kts | 252° |
| 2026-05-06 17:27 | 48.44387 | -4.43609 | 300 ft | 17 kts | 248° |
| 2026-05-06 17:27 | 48.44375 | -4.43772 | 298 ft | 14 kts | 281° |
| 2026-05-06 17:27 | 48.44343 | -4.43807 | 296 ft | 9 kts | 83° |
| 2026-05-06 17:27 | 48.44348 | -4.43781 | 295 ft | 0 kts | 70° |
| 2026-05-06 17:29 | 48.44365 | -4.43711 | 300 ft | 36 kts | 71° |
| 2026-05-06 17:29 | 48.44530 | -4.42984 | 300 ft | 100 kts | 72° |
| 2026-05-06 17:29 | 48.44785 | -4.41858 | 338 ft | 125 kts | 69° |
| 2026-05-06 17:29 | 48.45041 | -4.40549 | 575 ft | 132 kts | 72° |
| 2026-05-06 17:30 | 48.45229 | -4.39158 | 879 ft | 139 kts | 77° |
| 2026-05-06 17:30 | 48.45157 | -4.37650 | 1204 ft | 154 kts | 107° |
| 2026-05-06 17:30 | 48.44442 | -4.36414 | 1609 ft | 165 kts | 146° |
| 2026-05-06 17:30 | 48.43453 | -4.35531 | 2005 ft | 170 kts | 150° |
| 2026-05-06 17:31 | 48.42319 | -4.34630 | 2101 ft | 192 kts | 148° |
| 2026-05-06 17:31 | 48.41262 | -4.33423 | 2438 ft | 194 kts | 136° |
| 2026-05-06 17:31 | 48.40293 | -4.32042 | 2958 ft | 189 kts | 136° |
| 2026-05-06 17:31 | 48.39332 | -4.30692 | 3342 ft | 191 kts | 135° |
| 2026-05-06 17:32 | 48.38328 | -4.29316 | 3623 ft | 197 kts | 137° |
| 2026-05-06 17:32 | 48.37361 | -4.27915 | 4176 ft | 188 kts | 134° |
| 2026-05-06 17:32 | 48.36438 | -4.26507 | 4539 ft | 193 kts | 133° |
| 2026-05-06 17:32 | 48.35558 | -4.24913 | 4815 ft | 201 kts | 126° |
| 2026-05-06 17:33 | 48.34748 | -4.23236 | 5337 ft | 195 kts | 126° |
| 2026-05-06 17:33 | 48.33932 | -4.21633 | 5801 ft | 194 kts | 129° |
| 2026-05-06 17:33 | 48.33022 | -4.20087 | 6157 ft | 199 kts | 133° |
| 2026-05-06 17:33 | 48.32093 | -4.18541 | 6569 ft | 199 kts | 129° |
| 2026-05-06 17:34 | 48.31250 | -4.16910 | 7007 ft | 197 kts | 129° |
| 2026-05-06 17:34 | 48.30369 | -4.15314 | 7380 ft | 200 kts | 132° |
| 2026-05-06 17:34 | 48.29411 | -4.13789 | 7757 ft | 201 kts | 138° |
| 2026-05-06 17:34 | 48.28362 | -4.12394 | 8156 ft | 202 kts | 142° |
| 2026-05-06 17:35 | 48.27288 | -4.11032 | 8515 ft | 203 kts | 139° |
| 2026-05-06 17:35 | 48.26251 | -4.09571 | 8868 ft | 205 kts | 140° |
| 2026-05-06 17:35 | 48.25166 | -4.08165 | 9210 ft | 207 kts | 142° |
| 2026-05-06 17:36 | 48.22866 | -4.05501 | 9862 ft | 211 kts | 145° |
| 2026-05-06 17:36 | 48.21715 | -4.04119 | 10186 ft | 212 kts | 145° |
| 2026-05-06 17:36 | 48.20556 | -4.02791 | 10478 ft | 214 kts | 144° |
| 2026-05-06 17:36 | 48.19343 | -4.01426 | 10786 ft | 216 kts | 146° |
| 2026-05-06 17:37 | 48.18123 | -4.00164 | 11118 ft | 216 kts | 149° |
| 2026-05-06 17:37 | 48.16848 | -3.98947 | 11415 ft | 219 kts | 149° |
| 2026-05-06 17:37 | 48.15573 | -3.97687 | 11709 ft | 221 kts | 147° |
| 2026-05-06 17:37 | 48.14350 | -3.96274 | 12018 ft | 223 kts | 141° |
| 2026-05-06 17:38 | 48.13178 | -3.94741 | 12362 ft | 224 kts | 140° |
| 2026-05-06 17:38 | 48.11967 | -3.93269 | 12707 ft | 225 kts | 144° |
| 2026-05-06 17:38 | 48.10715 | -3.91842 | 13047 ft | 227 kts | 145° |
| 2026-05-06 17:38 | 48.09443 | -3.90422 | 13402 ft | 229 kts | 146° |
| 2026-05-06 17:39 | 48.08146 | -3.89022 | 13759 ft | 231 kts | 147° |
| 2026-05-06 17:39 | 48.06841 | -3.87595 | 14078 ft | 234 kts | 142° |
| 2026-05-06 17:39 | 48.05617 | -3.85967 | 14432 ft | 235 kts | 140° |
| 2026-05-06 17:39 | 48.04376 | -3.84385 | 14797 ft | 235 kts | 143° |
| 2026-05-06 17:40 | 48.03057 | -3.82872 | 14977 ft | 244 kts | 145° |
| 2026-05-06 17:40 | 48.01650 | -3.81318 | 14997 ft | 259 kts | 145° |
| 2026-05-06 17:40 | 48.00191 | -3.79657 | 15027 ft | 268 kts | 143° |
| 2026-05-06 17:40 | 47.98728 | -3.77908 | 15040 ft | 272 kts | 142° |
| 2026-05-06 17:41 | 47.97250 | -3.76123 | 15020 ft | 274 kts | 142° |
| 2026-05-06 17:41 | 47.95762 | -3.74346 | 14993 ft | 275 kts | 143° |
| 2026-05-06 17:41 | 47.94257 | -3.72580 | 14960 ft | 276 kts | 144° |
| 2026-05-06 17:41 | 47.92735 | -3.70843 | 14972 ft | 275 kts | 143° |
| 2026-05-06 17:42 | 47.91254 | -3.69039 | 14968 ft | 276 kts | 142° |
| 2026-05-06 17:42 | 47.89780 | -3.67198 | 14956 ft | 276 kts | 141° |
| 2026-05-06 17:42 | 47.88325 | -3.65330 | 14958 ft | 276 kts | 142° |
| 2026-05-06 17:42 | 47.86840 | -3.63532 | 14967 ft | 275 kts | 144° |
| 2026-05-06 17:43 | 47.85358 | -3.61810 | 14967 ft | 273 kts | 144° |
| 2026-05-06 17:43 | 47.83850 | -3.60086 | 14972 ft | 274 kts | 145° |
| 2026-05-06 17:43 | 47.82347 | -3.58381 | 14970 ft | 275 kts | 145° |
| 2026-05-06 17:43 | 47.80804 | -3.56638 | 14969 ft | 276 kts | 145° |
| 2026-05-06 17:44 | 47.79274 | -3.54911 | 14970 ft | 276 kts | 145° |
| 2026-05-06 17:44 | 47.77747 | -3.53191 | 14969 ft | 276 kts | 145° |
| 2026-05-06 17:44 | 47.76218 | -3.51467 | 14972 ft | 276 kts | 145° |
| 2026-05-06 17:44 | 47.74689 | -3.49746 | 14967 ft | 276 kts | 145° |
| 2026-05-06 17:45 | 47.73159 | -3.48024 | 14966 ft | 276 kts | 145° |
| 2026-05-06 17:45 | 47.71638 | -3.46280 | 14965 ft | 276 kts | 141° |
| 2026-05-06 17:45 | 47.70294 | -3.44229 | 14968 ft | 278 kts | 133° |
| 2026-05-06 17:45 | 47.69038 | -3.42055 | 14968 ft | 278 kts | 131° |
| 2026-05-06 17:46 | 47.67802 | -3.39843 | 14969 ft | 278 kts | 131° |
| 2026-05-06 17:46 | 47.66579 | -3.37627 | 14968 ft | 278 kts | 131° |
| 2026-05-06 17:46 | 47.65355 | -3.35402 | 14964 ft | 278 kts | 131° |
| 2026-05-06 17:46 | 47.64132 | -3.33180 | 14964 ft | 278 kts | 131° |
| 2026-05-06 17:47 | 47.62907 | -3.30959 | 14964 ft | 278 kts | 131° |
| 2026-05-06 17:47 | 47.61682 | -3.28742 | 14965 ft | 278 kts | 131° |
| 2026-05-06 17:47 | 47.60453 | -3.26520 | 14966 ft | 278 kts | 131° |
| 2026-05-06 17:47 | 47.59227 | -3.24306 | 14966 ft | 278 kts | 131° |
| 2026-05-06 17:48 | 47.58000 | -3.22091 | 14966 ft | 278 kts | 131° |
| 2026-05-06 17:48 | 47.56772 | -3.19877 | 14966 ft | 278 kts | 131° |
| 2026-05-06 17:48 | 47.55543 | -3.17663 | 14965 ft | 278 kts | 131° |
| 2026-05-06 17:48 | 47.54331 | -3.15480 | 14965 ft | 278 kts | 131° |
| 2026-05-06 17:49 | 47.53101 | -3.13271 | 14966 ft | 278 kts | 131° |
| 2026-05-06 17:49 | 47.51870 | -3.11062 | 14966 ft | 278 kts | 131° |
| 2026-05-06 17:49 | 47.50642 | -3.08858 | 14965 ft | 278 kts | 131° |
| 2026-05-06 17:49 | 47.49412 | -3.06653 | 14964 ft | 278 kts | 131° |
| 2026-05-06 17:50 | 47.48180 | -3.04447 | 14963 ft | 278 kts | 131° |
| 2026-05-06 17:50 | 47.46949 | -3.02245 | 14964 ft | 278 kts | 131° |
| 2026-05-06 17:50 | 47.45718 | -3.00043 | 14965 ft | 278 kts | 131° |
| 2026-05-06 17:50 | 47.44486 | -2.97841 | 14968 ft | 278 kts | 131° |
| 2026-05-06 17:51 | 47.43175 | -2.95761 | 14960 ft | 276 kts | 144° |
| 2026-05-06 17:51 | 47.41595 | -2.94171 | 14969 ft | 275 kts | 150° |
| 2026-05-06 17:51 | 47.39959 | -2.92715 | 14969 ft | 274 kts | 152° |
| 2026-05-06 17:51 | 47.38312 | -2.91302 | 14968 ft | 274 kts | 152° |
| 2026-05-06 17:52 | 47.36655 | -2.89900 | 14968 ft | 274 kts | 152° |
| 2026-05-06 17:52 | 47.34993 | -2.88512 | 14967 ft | 275 kts | 153° |
| 2026-05-06 17:52 | 47.33327 | -2.87132 | 14966 ft | 275 kts | 153° |
| 2026-05-06 17:52 | 47.31661 | -2.85759 | 14965 ft | 275 kts | 153° |
| 2026-05-06 17:53 | 47.29993 | -2.84386 | 14965 ft | 275 kts | 153° |
| 2026-05-06 17:53 | 47.28326 | -2.83014 | 14966 ft | 275 kts | 152° |
| 2026-05-06 17:53 | 47.26658 | -2.81640 | 14968 ft | 275 kts | 152° |
| 2026-05-06 17:53 | 47.24991 | -2.80267 | 14968 ft | 275 kts | 152° |
| 2026-05-06 17:54 | 47.23324 | -2.78892 | 14968 ft | 275 kts | 152° |
| 2026-05-06 17:54 | 47.21657 | -2.77517 | 14968 ft | 275 kts | 152° |
| 2026-05-06 17:54 | 47.19990 | -2.76141 | 14969 ft | 275 kts | 152° |
| 2026-05-06 17:54 | 47.18326 | -2.74769 | 14970 ft | 275 kts | 152° |
| 2026-05-06 17:55 | 47.16651 | -2.73409 | 14970 ft | 275 kts | 153° |
| 2026-05-06 17:55 | 47.14986 | -2.72034 | 14969 ft | 275 kts | 152° |
| 2026-05-06 17:55 | 47.13352 | -2.70570 | 14967 ft | 275 kts | 149° |
| 2026-05-06 17:55 | 47.11751 | -2.69029 | 14968 ft | 275 kts | 148° |
| 2026-05-06 17:56 | 47.10164 | -2.67456 | 14970 ft | 275 kts | 147° |
| 2026-05-06 17:56 | 47.08586 | -2.65862 | 14970 ft | 276 kts | 146° |
| 2026-05-06 17:56 | 47.07103 | -2.64073 | 14971 ft | 276 kts | 139° |
| 2026-05-06 17:56 | 47.05677 | -2.62184 | 14971 ft | 276 kts | 141° |
| 2026-05-06 17:57 | 47.04179 | -2.60424 | 14969 ft | 276 kts | 143° |
| 2026-05-06 17:57 | 47.02681 | -2.58665 | 14970 ft | 276 kts | 141° |
| 2026-05-06 17:57 | 47.01230 | -2.56823 | 14971 ft | 276 kts | 140° |
| 2026-05-06 17:57 | 46.99754 | -2.55023 | 14971 ft | 276 kts | 142° |
| 2026-05-06 17:58 | 46.98257 | -2.53261 | 14971 ft | 276 kts | 142° |
| 2026-05-06 17:58 | 46.96785 | -2.51457 | 14971 ft | 276 kts | 141° |
| 2026-05-06 17:58 | 46.95318 | -2.49645 | 14971 ft | 276 kts | 142° |
| 2026-05-06 17:58 | 46.93830 | -2.47867 | 14967 ft | 276 kts | 142° |
| 2026-05-06 17:59 | 46.92345 | -2.46086 | 14969 ft | 276 kts | 141° |
| 2026-05-06 17:59 | 46.90874 | -2.44283 | 14971 ft | 276 kts | 141° |
| 2026-05-06 17:59 | 46.89393 | -2.42488 | 14969 ft | 277 kts | 141° |
| 2026-05-06 17:59 | 46.87900 | -2.40701 | 14969 ft | 277 kts | 141° |
| 2026-05-06 18:00 | 46.86434 | -2.38930 | 14968 ft | 277 kts | 141° |
| 2026-05-06 18:00 | 46.84951 | -2.37130 | 14970 ft | 277 kts | 141° |
| 2026-05-06 18:00 | 46.83462 | -2.35339 | 14971 ft | 277 kts | 141° |
| 2026-05-06 18:00 | 46.81973 | -2.33553 | 14971 ft | 277 kts | 141° |
| 2026-05-06 18:01 | 46.80485 | -2.31757 | 14971 ft | 277 kts | 141° |
| 2026-05-06 18:01 | 46.78996 | -2.29962 | 14971 ft | 277 kts | 141° |
| 2026-05-06 18:01 | 46.77507 | -2.28179 | 14971 ft | 277 kts | 141° |
| 2026-05-06 18:01 | 46.76017 | -2.26390 | 14967 ft | 277 kts | 141° |
| 2026-05-06 18:02 | 46.74530 | -2.24600 | 14969 ft | 277 kts | 141° |
| 2026-05-06 18:02 | 46.73041 | -2.22816 | 14969 ft | 277 kts | 141° |
| 2026-05-06 18:02 | 46.71550 | -2.21033 | 14967 ft | 277 kts | 141° |
| 2026-05-06 18:02 | 46.70060 | -2.19246 | 14967 ft | 277 kts | 141° |
| 2026-05-06 18:03 | 46.68570 | -2.17463 | 14968 ft | 277 kts | 141° |
| 2026-05-06 18:03 | 46.67078 | -2.15681 | 14970 ft | 278 kts | 142° |
| 2026-05-06 18:03 | 46.65584 | -2.13899 | 14970 ft | 278 kts | 141° |
| 2026-05-06 18:03 | 46.64091 | -2.12113 | 14969 ft | 278 kts | 141° |
| 2026-05-06 18:04 | 46.62600 | -2.10333 | 14968 ft | 277 kts | 142° |
| 2026-05-06 18:04 | 46.61612 | -2.09157 | 14964 ft | 277 kts | 142° |
| 2026-05-06 18:04 | 46.60117 | -2.07379 | 14964 ft | 277 kts | 141° |
| 2026-05-06 18:04 | 46.58625 | -2.05599 | 14963 ft | 277 kts | 141° |
| 2026-05-06 18:05 | 46.57135 | -2.03826 | 14963 ft | 277 kts | 142° |
| 2026-05-06 18:05 | 46.55640 | -2.02051 | 14963 ft | 277 kts | 142° |
| 2026-05-06 18:05 | 46.54143 | -2.00276 | 14964 ft | 278 kts | 141° |
| 2026-05-06 18:05 | 46.52645 | -1.98494 | 14965 ft | 278 kts | 141° |
| 2026-05-06 18:06 | 46.51150 | -1.96717 | 14967 ft | 278 kts | 141° |
| 2026-05-06 18:06 | 46.49646 | -1.94938 | 14967 ft | 279 kts | 141° |
| 2026-05-06 18:06 | 46.48145 | -1.93163 | 14966 ft | 278 kts | 141° |
| 2026-05-06 18:06 | 46.46646 | -1.91385 | 14965 ft | 278 kts | 141° |
| 2026-05-06 18:07 | 46.45144 | -1.89608 | 14964 ft | 278 kts | 141° |
| 2026-05-06 18:07 | 46.43641 | -1.87833 | 14965 ft | 278 kts | 141° |
| 2026-05-06 18:07 | 46.42141 | -1.86061 | 14966 ft | 278 kts | 141° |
| 2026-05-06 18:07 | 46.40639 | -1.84289 | 14966 ft | 278 kts | 141° |
| 2026-05-06 18:08 | 46.39135 | -1.82516 | 14962 ft | 278 kts | 141° |
| 2026-05-06 18:08 | 46.37634 | -1.80747 | 14963 ft | 278 kts | 141° |
| 2026-05-06 18:08 | 46.36131 | -1.78976 | 14962 ft | 278 kts | 141° |
| 2026-05-06 18:08 | 46.34629 | -1.77210 | 14960 ft | 279 kts | 141° |
| 2026-05-06 18:09 | 46.33121 | -1.75438 | 14965 ft | 279 kts | 141° |
| 2026-05-06 18:09 | 46.31615 | -1.73666 | 14963 ft | 279 kts | 141° |
| 2026-05-06 18:09 | 46.30106 | -1.71895 | 14963 ft | 279 kts | 141° |
| 2026-05-06 18:09 | 46.28597 | -1.70125 | 14963 ft | 279 kts | 141° |
| 2026-05-06 18:10 | 46.27088 | -1.68357 | 14963 ft | 279 kts | 141° |
| 2026-05-06 18:10 | 46.25580 | -1.66590 | 14965 ft | 279 kts | 141° |
| 2026-05-06 18:10 | 46.24088 | -1.64843 | 14968 ft | 279 kts | 141° |
| 2026-05-06 18:10 | 46.22581 | -1.63080 | 14971 ft | 279 kts | 141° |
| 2026-05-06 18:11 | 46.21072 | -1.61316 | 14971 ft | 279 kts | 141° |
| 2026-05-06 18:11 | 46.19562 | -1.59551 | 14970 ft | 279 kts | 141° |
| 2026-05-06 18:11 | 46.18050 | -1.57789 | 14974 ft | 280 kts | 140° |
| 2026-05-06 18:11 | 46.16539 | -1.56027 | 14974 ft | 280 kts | 140° |
| 2026-05-06 18:12 | 46.15026 | -1.54262 | 14969 ft | 280 kts | 140° |
| 2026-05-06 18:12 | 46.13508 | -1.52494 | 14968 ft | 280 kts | 140° |
| 2026-05-06 18:12 | 46.11994 | -1.50731 | 14966 ft | 280 kts | 140° |
| 2026-05-06 18:12 | 46.10478 | -1.48969 | 14966 ft | 280 kts | 140° |
| 2026-05-06 18:13 | 46.08962 | -1.47207 | 14968 ft | 280 kts | 140° |
| 2026-05-06 18:13 | 46.07444 | -1.45443 | 14969 ft | 280 kts | 140° |
| 2026-05-06 18:13 | 46.05926 | -1.43682 | 14967 ft | 280 kts | 140° |
| 2026-05-06 18:13 | 46.04408 | -1.41923 | 14966 ft | 280 kts | 140° |
| 2026-05-06 18:14 | 46.02891 | -1.40164 | 14967 ft | 280 kts | 140° |
| 2026-05-06 18:14 | 46.01373 | -1.38406 | 14967 ft | 280 kts | 140° |
| 2026-05-06 18:14 | 45.99853 | -1.36648 | 14968 ft | 280 kts | 140° |
| 2026-05-06 18:14 | 45.98336 | -1.34894 | 14969 ft | 280 kts | 140° |
| 2026-05-06 18:15 | 45.96816 | -1.33137 | 14971 ft | 280 kts | 140° |
| 2026-05-06 18:15 | 45.95298 | -1.31385 | 14972 ft | 280 kts | 140° |
| 2026-05-06 18:15 | 45.93779 | -1.29632 | 14975 ft | 280 kts | 140° |
| 2026-05-06 18:15 | 45.92258 | -1.27878 | 14970 ft | 280 kts | 140° |
| 2026-05-06 18:16 | 45.90738 | -1.26128 | 14968 ft | 280 kts | 140° |
| 2026-05-06 18:16 | 45.89218 | -1.24378 | 14969 ft | 280 kts | 141° |
| 2026-05-06 18:16 | 45.87698 | -1.22630 | 14970 ft | 280 kts | 141° |
| 2026-05-06 18:16 | 45.86175 | -1.20879 | 14971 ft | 280 kts | 141° |
| 2026-05-06 18:17 | 45.84657 | -1.19134 | 14972 ft | 280 kts | 141° |
| 2026-05-06 18:17 | 45.83154 | -1.17409 | 14980 ft | 280 kts | 141° |
| 2026-05-06 18:17 | 45.81638 | -1.15669 | 14973 ft | 279 kts | 141° |
| 2026-05-06 18:17 | 45.80120 | -1.13930 | 14969 ft | 279 kts | 141° |
| 2026-05-06 18:18 | 45.78606 | -1.12197 | 14968 ft | 279 kts | 141° |
| 2026-05-06 18:18 | 45.77093 | -1.10465 | 14968 ft | 278 kts | 141° |
| 2026-05-06 18:18 | 45.75578 | -1.08730 | 14972 ft | 279 kts | 141° |
| 2026-05-06 18:18 | 45.74058 | -1.06995 | 14972 ft | 279 kts | 141° |
| 2026-05-06 18:19 | 45.72540 | -1.05261 | 14965 ft | 280 kts | 148° |
| 2026-05-06 18:19 | 45.70726 | -1.04328 | 14972 ft | 278 kts | 173° |
| 2026-05-06 18:19 | 45.68805 | -1.04087 | 14977 ft | 277 kts | 178° |
| 2026-05-06 18:19 | 45.66878 | -1.03896 | 14969 ft | 278 kts | 172° |
| 2026-05-06 18:20 | 45.65038 | -1.03050 | 14968 ft | 279 kts | 159° |
| 2026-05-06 18:20 | 45.63224 | -1.02029 | 14830 ft | 281 kts | 159° |
| 2026-05-06 18:20 | 45.61357 | -1.01166 | 14495 ft | 283 kts | 165° |
| 2026-05-06 18:20 | 45.59444 | -1.00543 | 14176 ft | 282 kts | 169° |
| 2026-05-06 18:21 | 45.57516 | -1.00000 | 13778 ft | 283 kts | 169° |
| 2026-05-06 18:21 | 45.55598 | -0.99415 | 13426 ft | 280 kts | 169° |
| 2026-05-06 18:21 | 45.53692 | -0.98918 | 13016 ft | 279 kts | 172° |
| 2026-05-06 18:21 | 45.51765 | -0.98488 | 12457 ft | 281 kts | 173° |
| 2026-05-06 18:22 | 45.49847 | -0.98125 | 12130 ft | 275 kts | 174° |
| 2026-05-06 18:22 | 45.47955 | -0.97691 | 11717 ft | 276 kts | 170° |
| 2026-05-06 18:22 | 45.46102 | -0.97025 | 11469 ft | 273 kts | 165° |
| 2026-05-06 18:22 | 45.44291 | -0.96236 | 11236 ft | 271 kts | 163° |
| 2026-05-06 18:23 | 45.42500 | -0.95383 | 10981 ft | 271 kts | 162° |
| 2026-05-06 18:23 | 45.40724 | -0.94550 | 10986 ft | 268 kts | 163° |
| 2026-05-06 18:23 | 45.38936 | -0.93821 | 10995 ft | 268 kts | 165° |
| 2026-05-06 18:23 | 45.37160 | -0.93005 | 10980 ft | 268 kts | 162° |
| 2026-05-06 18:24 | 45.35402 | -0.92139 | 10972 ft | 268 kts | 162° |
| 2026-05-06 18:24 | 45.33636 | -0.91291 | 10968 ft | 268 kts | 165° |
| 2026-05-06 18:24 | 45.31820 | -0.90686 | 10970 ft | 268 kts | 170° |
| 2026-05-06 18:24 | 45.30002 | -0.90083 | 10970 ft | 268 kts | 165° |
| 2026-05-06 18:25 | 45.28216 | -0.89337 | 10970 ft | 267 kts | 165° |
| 2026-05-06 18:25 | 45.26423 | -0.88678 | 10968 ft | 266 kts | 168° |
| 2026-05-06 18:25 | 45.24619 | -0.88090 | 10903 ft | 265 kts | 168° |
| 2026-05-06 18:25 | 45.22821 | -0.87535 | 10573 ft | 266 kts | 169° |
| 2026-05-06 18:26 | 45.21002 | -0.86986 | 10246 ft | 266 kts | 171° |
| 2026-05-06 18:26 | 45.19168 | -0.86988 | 9812 ft | 267 kts | 192° |
| 2026-05-06 18:26 | 45.17469 | -0.87914 | 9336 ft | 264 kts | 213° |
| 2026-05-06 18:26 | 45.16063 | -0.89512 | 9037 ft | 257 kts | 227° |
| 2026-05-06 18:27 | 45.14791 | -0.91258 | 8853 ft | 251 kts | 228° |
| 2026-05-06 18:27 | 45.13591 | -0.93009 | 8558 ft | 245 kts | 230° |
| 2026-05-06 18:27 | 45.12425 | -0.94789 | 7998 ft | 250 kts | 230° |
| 2026-05-06 18:27 | 45.11220 | -0.96566 | 7629 ft | 248 kts | 226° |
| 2026-05-06 18:28 | 45.09928 | -0.98123 | 7334 ft | 242 kts | 221° |
| 2026-05-06 18:28 | 45.08546 | -0.99501 | 6965 ft | 243 kts | 220° |
| 2026-05-06 18:28 | 45.07200 | -1.00965 | 6648 ft | 244 kts | 222° |
| 2026-05-06 18:28 | 45.05910 | -1.02488 | 6426 ft | 239 kts | 225° |
| 2026-05-06 18:29 | 45.04684 | -1.04075 | 6092 ft | 240 kts | 225° |
| 2026-05-06 18:29 | 45.03277 | -1.05413 | 5658 ft | 249 kts | 210° |
| 2026-05-06 18:29 | 45.01641 | -1.06235 | 5361 ft | 250 kts | 195° |
| 2026-05-06 18:29 | 44.99901 | -1.06406 | 5069 ft | 251 kts | 180° |
| 2026-05-06 18:30 | 44.98178 | -1.06069 | 4794 ft | 250 kts | 170° |
| 2026-05-06 18:30 | 44.96495 | -1.05433 | 4439 ft | 251 kts | 164° |
| 2026-05-06 18:30 | 44.94850 | -1.04662 | 4229 ft | 246 kts | 164° |
| 2026-05-06 18:30 | 44.93226 | -1.03958 | 3951 ft | 244 kts | 166° |
| 2026-05-06 18:31 | 44.91585 | -1.03331 | 3618 ft | 244 kts | 167° |
| 2026-05-06 18:31 | 44.89949 | -1.02757 | 3474 ft | 242 kts | 168° |
| 2026-05-06 18:31 | 44.88315 | -1.02217 | 3479 ft | 243 kts | 170° |
| 2026-05-06 18:31 | 44.86643 | -1.01714 | 3472 ft | 246 kts | 171° |
| 2026-05-06 18:32 | 44.84985 | -1.01242 | 3625 ft | 241 kts | 171° |
| 2026-05-06 18:32 | 44.83318 | -1.00752 | 3577 ft | 248 kts | 169° |
| 2026-05-06 18:32 | 44.81653 | -1.00217 | 3563 ft | 249 kts | 169° |
| 2026-05-06 18:32 | 44.79951 | -0.99631 | 3468 ft | 254 kts | 167° |
| 2026-05-06 18:33 | 44.78220 | -0.99099 | 3575 ft | 249 kts | 172° |
| 2026-05-06 18:33 | 44.76527 | -0.98766 | 3539 ft | 250 kts | 176° |
| 2026-05-06 18:33 | 44.74791 | -0.98529 | 3451 ft | 251 kts | 176° |
| 2026-05-06 18:33 | 44.73062 | -0.98307 | 3495 ft | 247 kts | 177° |
| 2026-05-06 18:34 | 44.71351 | -0.98077 | 3379 ft | 247 kts | 177° |
| 2026-05-06 18:34 | 44.69642 | -0.97978 | 3226 ft | 246 kts | 184° |
| 2026-05-06 18:34 | 44.67954 | -0.98139 | 3025 ft | 240 kts | 189° |
| 2026-05-06 18:34 | 44.66347 | -0.98407 | 2851 ft | 221 kts | 191° |
| 2026-05-06 18:35 | 44.64875 | -0.98663 | 2718 ft | 207 kts | 191° |
| 2026-05-06 18:35 | 44.63506 | -0.98946 | 2439 ft | 190 kts | 194° |
| 2026-05-06 18:35 | 44.62236 | -0.99351 | 2012 ft | 184 kts | 199° |
| 2026-05-06 18:35 | 44.61065 | -0.99864 | 1937 ft | 169 kts | 203° |
| 2026-05-06 18:36 | 44.59980 | -1.00427 | 1898 ft | 163 kts | 207° |
| 2026-05-06 18:36 | 44.58982 | -1.01154 | 1820 ft | 161 kts | 221° |
| 2026-05-06 18:36 | 44.58196 | -1.02252 | 1687 ft | 159 kts | 237° |
| 2026-05-06 18:36 | 44.57588 | -1.03500 | 1530 ft | 151 kts | 243° |
| 2026-05-06 18:37 | 44.57004 | -1.04737 | 1304 ft | 154 kts | 241° |
| 2026-05-06 18:37 | 44.56611 | -1.05567 | 1201 ft | 153 kts | 242° |
| 2026-05-06 18:37 | 44.55913 | -1.07184 | 848 ft | 137 kts | 243° |
| 2026-05-06 18:37 | 44.55414 | -1.08259 | 634 ft | 132 kts | 244° |
| 2026-05-06 18:38 | 44.54896 | -1.09365 | 478 ft | 139 kts | 241° |
| 2026-05-06 18:38 | 44.54384 | -1.10459 | 260 ft | 130 kts | 241° |
| 2026-05-06 18:38 | 44.53895 | -1.11496 | 94 ft | 121 kts | 236° |
| 2026-05-06 18:38 | 44.53533 | -1.12260 | 87 ft | 71 kts | 236° |
| 2026-05-06 18:39 | 44.53328 | -1.12696 | 80 ft | 40 kts | 236° |
| 2026-05-06 18:39 | 44.53198 | -1.12966 | 83 ft | 28 kts | 237° |
| 2026-05-06 18:39 | 44.53146 | -1.13157 | 81 ft | 18 kts | 278° |
| 2026-05-06 18:40 | 44.53198 | -1.13545 | 81 ft | 11 kts | 280° |
| 2026-05-06 18:40 | 44.53217 | -1.13666 | 80 ft | 15 kts | 296° |
| 2026-05-06 18:40 | 44.53272 | -1.13697 | 80 ft | 10 kts | 13° |
| 2026-05-06 18:40 | 44.53353 | -1.13673 | 80 ft | 11 kts | 9° |
| 2026-05-06 18:41 | 44.53456 | -1.13642 | 82 ft | 19 kts | 12° |
| 2026-05-06 18:41 | 44.53562 | -1.13611 | 83 ft | 11 kts | 12° |
| 2026-05-06 18:41 | 44.53672 | -1.13578 | 81 ft | 20 kts | 12° |
| 2026-05-06 18:41 | 44.53788 | -1.13541 | 81 ft | 12 kts | 15° |
| 2026-05-06 18:42 | 44.53860 | -1.13527 | 82 ft | 11 kts | 343° |
| 2026-05-06 18:42 | 44.53904 | -1.13541 | 86 ft | 10 kts | 20° |
| 2026-05-06 18:42 | 44.53945 | -1.13471 | 84 ft | 9 kts | 98° |
| 2026-05-06 18:42 | 44.53925 | -1.13421 | 82 ft | 4 kts | 163° |
| 2026-05-06 18:43 | 44.53921 | -1.13420 | 82 ft | 0 kts | 164° |